Theologos P . — SZNB — position and weather

sailwx.info

Track history (hours):
 
Tides and Currents Weather Stations Pressure Air Temp Water Temp Dewpoint Dewpoint Depression Visibility Wind Speed Wind Dir Waves Ship Positions

Theologos P .

Last reported at 2015-May-03 14:33 UTC. Time now 2015-May-03 17:54 UTC.
Position N 38°01' E 024°01'.

Length 118 m; draft 4.5 m.

Type: Ship. MMSI: 240521000.

Date/timePositionNaut miles runAvg speedWind from/ knotsBaromVisibWave heightAir tempDewpointWater temp
2015-May-03 14:33N 38°01' E 024°01'3 3.3
2015-May-03 13:34N 38°01' E 024°05'4515.1
2015-May-03 10:33N 37°40' E 024°56'1313.1
2015-May-03 09:33N 37°32' E 025°09'9 9.1
2015-May-03 08:34N 37°28' E 025°20'0 0.0
2015-May-03 07:34N 37°28' E 025°20'0 0.0
2015-May-03 06:33N 37°28' E 025°20'0 0.0
2015-May-03 05:34N 37°28' E 025°20'0 0.0
2015-May-03 04:33N 37°28' E 025°20'0 0.0
2015-May-03 03:34N 37°28' E 025°20'0 0.0
2015-May-03 02:33N 37°28' E 025°20'0 0.0
2015-May-03 01:33N 37°28' E 025°20'0 0.0
2015-May-03 00:33N 37°28' E 025°20'0 0.0
2015-May-02 23:34N 37°28' E 025°20'0 0.0
2015-May-02 22:33N 37°28' E 025°20'0 0.0
2015-May-02 21:33N 37°28' E 025°20'0 0.0
2015-May-02 20:34N 37°28' E 025°20'0 0.0
2015-May-02 19:34N 37°28' E 025°20'9 9.4
2015-May-02 18:34N 37°32' E 025°09'1717.2
2015-May-02 17:33N 37°43' E 024°52'3114.4
2015-May-02 15:23N 37°57' E 024°17'10 5.2
2015-May-02 13:33N 38°01' E 024°05'4515.0
2015-May-02 10:33N 37°40' E 024°56'1313.3
2015-May-02 09:33N 37°32' E 025°09'9 9.1
2015-May-02 08:33N 37°28' E 025°20'0 0.0
2015-May-02 07:34N 37°28' E 025°20'0 0.0
2015-May-02 06:33N 37°28' E 025°20'0 0.0
2015-May-02 05:34N 37°28' E 025°20'0 0.0
2015-May-02 04:34N 37°28' E 025°20'0 0.0
2015-May-02 03:33N 37°28' E 025°20'0 0.0
2015-May-02 02:33N 37°28' E 025°20'0 0.0
2015-May-02 01:34N 37°28' E 025°20'0 0.0
2015-May-02 00:34N 37°28' E 025°20'0 0.0
2015-May-01 23:33N 37°28' E 025°20'0 0.0
2015-May-01 22:34N 37°28' E 025°20'0 0.0
2015-May-01 21:34N 37°28' E 025°20'0 0.0
2015-May-01 20:34N 37°28' E 025°20'0 0.0
2015-May-01 19:34N 37°28' E 025°20'0 0.0
2015-May-01 18:34N 37°28' E 025°20'0 0.0
2015-May-01 17:34N 37°28' E 025°20'0 0.0
2015-May-01 16:33N 37°28' E 025°20'0 0.0
2015-May-01 15:34N 37°28' E 025°20'0 0.0
2015-May-01 14:33N 37°28' E 025°20'0 0.0
2015-May-01 13:34N 37°28' E 025°20'0 0.0
2015-May-01 12:34N 37°28' E 025°20'0 0.0
2015-May-01 11:33N 37°28' E 025°20'0 0.0
2015-May-01 10:33N 37°28' E 025°20'0 0.0
2015-May-01 09:33N 37°28' E 025°20'0 0.0
2015-May-01 08:34N 37°28' E 025°20'0 0.0
2015-May-01 07:34N 37°28' E 025°20'0 0.0
2015-May-01 06:34N 37°28' E 025°20'0 0.0
2015-May-01 05:34N 37°28' E 025°20'0 0.0
2015-May-01 04:34N 37°28' E 025°20'0 0.0
2015-May-01 03:33N 37°28' E 025°20'0 0.0
2015-May-01 02:33N 37°28' E 025°20'0 0.0
2015-May-01 01:33N 37°28' E 025°20'0 0.0
2015-May-01 00:33N 37°28' E 025°20'0 0.0
2015-Apr-30 23:33N 37°28' E 025°20'0 0.0
2015-Apr-30 22:34N 37°28' E 025°20'0 0.0
2015-Apr-30 21:34N 37°28' E 025°20'0 0.0
2015-Apr-30 20:34N 37°28' E 025°20'3 3.0
2015-Apr-30 19:33N 37°29' E 025°16'1211.7
2015-Apr-30 18:33N 37°35' E 025°03'4414.1
2015-Apr-30 15:25N 37°57' E 024°15'12 1.9
2015-Apr-30 09:16N 38°01' E 024°01'1317.8
2015-Apr-30 08:32N 37°57' E 024°17'4715.7
2015-Apr-30 05:33N 37°33' E 025°07'1110.9
2015-Apr-30 04:32N 37°28' E 025°20'0 0.0
2015-Apr-30 03:29N 37°28' E 025°20'0 0.0
2015-Apr-30 02:25N 37°28' E 025°20'0 0.0
2015-Apr-30 01:32N 37°28' E 025°20'0 0.0
2015-Apr-30 00:32N 37°28' E 025°20'0 0.0
2015-Apr-29 23:21N 37°28' E 025°20'0 0.0
2015-Apr-29 22:32N 37°28' E 025°20'0 0.0
2015-Apr-29 21:31N 37°28' E 025°20'0 0.0
2015-Apr-29 20:33N 37°28' E 025°20'4 3.5
2015-Apr-29 19:33N 37°29' E 025°15'1010.6
2015-Apr-29 18:34N 37°34' E 025°04'57 6.2
2015-Apr-29 09:21N 38°02' E 024°01'1717.8
2015-Apr-29 08:24N 37°56' E 024°21'2613.9
2015-Apr-29 06:33N 37°44' E 024°50'1818.2
2015-Apr-29 05:33N 37°33' E 025°07'1110.8
2015-Apr-29 04:33N 37°28' E 025°20'0 0.0
2015-Apr-29 03:33N 37°28' E 025°20'0 0.0
2015-Apr-29 02:33N 37°28' E 025°20'0 0.0
2015-Apr-29 01:33N 37°28' E 025°20'0 0.0
2015-Apr-29 00:33N 37°28' E 025°20'0 0.0
2015-Apr-28 23:33N 37°28' E 025°20'0 0.0
2015-Apr-28 22:33N 37°28' E 025°20'0 0.0
2015-Apr-28 21:33N 37°28' E 025°20'0 0.0
2015-Apr-28 20:33N 37°28' E 025°20'0 0.2
2015-Apr-28 19:33N 37°28' E 025°19'1010.4
2015-Apr-28 18:33N 37°32' E 025°07'1817.6
2015-Apr-28 17:33N 37°44' E 024°51'2913.6
2015-Apr-28 15:23N 37°57' E 024°17'14 2.3
2015-Apr-28 09:21N 38°01' E 024°01'1417.3
2015-Apr-28 08:32N 37°57' E 024°18'2914.0
2015-Apr-28 06:30N 37°45' E 024°50'1818.6
2015-Apr-28 05:33N 37°33' E 025°07'1111.1
2015-Apr-28 04:33N 37°28' E 025°20'0 0.0
2015-Apr-28 03:33N 37°28' E 025°20'0 0.0
2015-Apr-28 02:33N 37°28' E 025°20'0 0.0
2015-Apr-28 01:33N 37°28' E 025°20'0 0.0
2015-Apr-28 00:33N 37°28' E 025°20'0 0.0
2015-Apr-27 23:33N 37°28' E 025°20'0 0.0
2015-Apr-27 22:33N 37°28' E 025°20'0 0.0
2015-Apr-27 21:33N 37°28' E 025°20'0 0.0
2015-Apr-27 20:33N 37°28' E 025°20'0 0.0
2015-Apr-27 19:34N 37°28' E 025°20'10 9.9
2015-Apr-27 18:33N 37°32' E 025°08'1717.5
2015-Apr-27 17:34N 37°44' E 024°52'3214.1
2015-Apr-27 15:18N 37°57' E 024°15'12 2.0
2015-Apr-27 09:17N 38°01' E 024°01'1418.0
2015-Apr-27 08:30N 37°57' E 024°18'2914.4
2015-Apr-27 06:30N 37°44' E 024°50'1818.5
2015-Apr-27 05:33N 37°33' E 025°07'1111.2
2015-Apr-27 04:33N 37°28' E 025°20'0 0.0
2015-Apr-27 03:33N 37°28' E 025°20'0 0.0
2015-Apr-27 02:33N 37°28' E 025°20'0 0.0
2015-Apr-27 01:33N 37°28' E 025°20'0 0.0
2015-Apr-27 00:33N 37°28' E 025°20'0 0.0
2015-Apr-26 23:33N 37°28' E 025°20'0 0.0
2015-Apr-26 22:33N 37°28' E 025°20'0 0.0
2015-Apr-26 21:33N 37°28' E 025°20'0 0.0
2015-Apr-26 20:33N 37°28' E 025°20'0 0.0
2015-Apr-26 19:33N 37°28' E 025°20'9 9.3
2015-Apr-26 18:33N 37°32' E 025°09'1616.4
2015-Apr-26 17:33N 37°43' E 024°54'3214.4
2015-Apr-26 15:19N 37°57' E 024°17'10 5.6
2015-Apr-26 13:34N 38°01' E 024°05'2018.4
2015-Apr-26 12:27N 37°54' E 024°30'2513.3
2015-Apr-26 10:33N 37°39' E 024°56'1413.7
2015-Apr-26 09:33N 37°31' E 025°10'9 8.6
2015-Apr-26 08:33N 37°28' E 025°20'0 0.0
2015-Apr-26 07:33N 37°28' E 025°20'0 0.0
2015-Apr-26 06:33N 37°28' E 025°20'0 0.0
2015-Apr-26 05:33N 37°28' E 025°20'0 0.0
2015-Apr-26 04:33N 37°28' E 025°20'0 0.0
2015-Apr-26 03:33N 37°28' E 025°20'0 0.0
2015-Apr-26 02:33N 37°28' E 025°20'0 0.0
2015-Apr-26 01:33N 37°28' E 025°20'0 0.0
2015-Apr-26 00:33N 37°28' E 025°20'0 0.0
2015-Apr-25 23:33N 37°28' E 025°20'0 0.0
2015-Apr-25 22:33N 37°28' E 025°20'0 0.0
2015-Apr-25 21:33N 37°28' E 025°20'0 0.0
2015-Apr-25 20:33N 37°28' E 025°20'0 0.0
2015-Apr-25 19:33N 37°28' E 025°20'9 9.5
2015-Apr-25 18:33N 37°32' E 025°09'1716.7
2015-Apr-25 17:33N 37°43' E 024°53'4515.0
2015-Apr-25 14:33N 38°01' E 024°01'4 4.0
2015-Apr-25 13:33N 38°00' E 024°06'1918.3
2015-Apr-25 12:30N 37°54' E 024°29'2512.9
2015-Apr-25 10:33N 37°40' E 024°55'1413.9
2015-Apr-25 09:33N 37°32' E 025°09'9 9.0
2015-Apr-25 08:33N 37°28' E 025°20'0 0.0
2015-Apr-25 07:33N 37°28' E 025°20'0 0.0
2015-Apr-25 06:33N 37°28' E 025°20'0 0.0
2015-Apr-25 05:34N 37°28' E 025°20'0 0.0
2015-Apr-25 04:33N 37°28' E 025°20'0 0.0
2015-Apr-25 03:33N 37°28' E 025°20'0 0.0
2015-Apr-25 02:33N 37°28' E 025°20'0 0.0
2015-Apr-25 01:33N 37°28' E 025°20'0 0.0
2015-Apr-25 00:34N 37°28' E 025°20'0 0.0
2015-Apr-24 23:33N 37°28' E 025°20'0 0.0
2015-Apr-24 22:33N 37°28' E 025°20'0 0.0
2015-Apr-24 21:34N 37°28' E 025°20'0 0.0
2015-Apr-24 20:33N 37°28' E 025°20'0 0.1
2015-Apr-24 19:34N 37°28' E 025°20'1111.1
2015-Apr-24 18:34N 37°32' E 025°07'1717.5
2015-Apr-24 17:34N 37°44' E 024°51'3013.7
2015-Apr-24 15:22N 37°57' E 024°16'13 2.2
2015-Apr-24 09:23N 38°01' E 024°01'1817.6
2015-Apr-24 08:22N 37°55' E 024°22'2513.7
2015-Apr-24 06:33N 37°44' E 024°50'1818.4
2015-Apr-24 05:33N 37°32' E 025°08'1110.6
2015-Apr-24 04:33N 37°28' E 025°20'0 0.0
2015-Apr-24 03:33N 37°28' E 025°20'0 0.0
2015-Apr-24 02:33N 37°28' E 025°20'0 0.0
2015-Apr-24 01:33N 37°28' E 025°20'0 0.0
2015-Apr-24 00:33N 37°28' E 025°20'0 0.0
2015-Apr-23 23:33N 37°28' E 025°20'0 0.0
2015-Apr-23 22:34N 37°28' E 025°20'0 0.0
2015-Apr-23 21:33N 37°28' E 025°20'0 0.0
2015-Apr-23 20:33N 37°28' E 025°20'0 0.0
2015-Apr-23 19:33N 37°28' E 025°20'10 9.9
2015-Apr-23 18:34N 37°32' E 025°09'1717.4
2015-Apr-23 17:34N 37°44' E 024°52'3414.2
2015-Apr-23 15:08N 37°58' E 024°13'  
Track history (hours):
 
Tides and Currents Weather Stations Pressure Air Temp Water Temp Dewpoint Dewpoint Depression Visibility Wind Speed Wind Dir Waves Ship Positions

Theologos P .

Last reported at 2015-May-03 14:33 UTC. Time now 2015-May-03 17:54 UTC.
Position N 38°01' E 024°01'.

Length 118 m; draft 4.5 m.

Type: Ship. MMSI: 240521000.

Date/timePositionNaut miles runAvg speedWind from/ knotsBaromVisibWave heightAir tempDewpointWater temp
2015-May-03 14:33N 38°01' E 024°01'3 3.3
2015-May-03 13:34N 38°01' E 024°05'4515.1
2015-May-03 10:33N 37°40' E 024°56'1313.1
2015-May-03 09:33N 37°32' E 025°09'9 9.1
2015-May-03 08:34N 37°28' E 025°20'0 0.0
2015-May-03 07:34N 37°28' E 025°20'0 0.0
2015-May-03 06:33N 37°28' E 025°20'0 0.0
2015-May-03 05:34N 37°28' E 025°20'0 0.0
2015-May-03 04:33N 37°28' E 025°20'0 0.0
2015-May-03 03:34N 37°28' E 025°20'0 0.0
2015-May-03 02:33N 37°28' E 025°20'0 0.0
2015-May-03 01:33N 37°28' E 025°20'0 0.0
2015-May-03 00:33N 37°28' E 025°20'0 0.0
2015-May-02 23:34N 37°28' E 025°20'0 0.0
2015-May-02 22:33N 37°28' E 025°20'0 0.0
2015-May-02 21:33N 37°28' E 025°20'0 0.0
2015-May-02 20:34N 37°28' E 025°20'0 0.0
2015-May-02 19:34N 37°28' E 025°20'9 9.4
2015-May-02 18:34N 37°32' E 025°09'1717.2
2015-May-02 17:33N 37°43' E 024°52'3114.4
2015-May-02 15:23N 37°57' E 024°17'10 5.2
2015-May-02 13:33N 38°01' E 024°05'4515.0
2015-May-02 10:33N 37°40' E 024°56'1313.3
2015-May-02 09:33N 37°32' E 025°09'9 9.1
2015-May-02 08:33N 37°28' E 025°20'0 0.0
2015-May-02 07:34N 37°28' E 025°20'0 0.0
2015-May-02 06:33N 37°28' E 025°20'0 0.0
2015-May-02 05:34N 37°28' E 025°20'0 0.0
2015-May-02 04:34N 37°28' E 025°20'0 0.0
2015-May-02 03:33N 37°28' E 025°20'0 0.0
2015-May-02 02:33N 37°28' E 025°20'0 0.0
2015-May-02 01:34N 37°28' E 025°20'0 0.0
2015-May-02 00:34N 37°28' E 025°20'0 0.0
2015-May-01 23:33N 37°28' E 025°20'0 0.0
2015-May-01 22:34N 37°28' E 025°20'0 0.0
2015-May-01 21:34N 37°28' E 025°20'0 0.0
2015-May-01 20:34N 37°28' E 025°20'0 0.0
2015-May-01 19:34N 37°28' E 025°20'0 0.0
2015-May-01 18:34N 37°28' E 025°20'0 0.0
2015-May-01 17:34N 37°28' E 025°20'0 0.0
2015-May-01 16:33N 37°28' E 025°20'0 0.0
2015-May-01 15:34N 37°28' E 025°20'0 0.0
2015-May-01 14:33N 37°28' E 025°20'0 0.0
2015-May-01 13:34N 37°28' E 025°20'0 0.0
2015-May-01 12:34N 37°28' E 025°20'0 0.0
2015-May-01 11:33N 37°28' E 025°20'0 0.0
2015-May-01 10:33N 37°28' E 025°20'0 0.0
2015-May-01 09:33N 37°28' E 025°20'0 0.0
2015-May-01 08:34N 37°28' E 025°20'0 0.0
2015-May-01 07:34N 37°28' E 025°20'0 0.0
2015-May-01 06:34N 37°28' E 025°20'0 0.0
2015-May-01 05:34N 37°28' E 025°20'0 0.0
2015-May-01 04:34N 37°28' E 025°20'0 0.0
2015-May-01 03:33N 37°28' E 025°20'0 0.0
2015-May-01 02:33N 37°28' E 025°20'0 0.0
2015-May-01 01:33N 37°28' E 025°20'0 0.0
2015-May-01 00:33N 37°28' E 025°20'0 0.0
2015-Apr-30 23:33N 37°28' E 025°20'0 0.0
2015-Apr-30 22:34N 37°28' E 025°20'0 0.0
2015-Apr-30 21:34N 37°28' E 025°20'0 0.0
2015-Apr-30 20:34N 37°28' E 025°20'3 3.0
2015-Apr-30 19:33N 37°29' E 025°16'1211.7
2015-Apr-30 18:33N 37°35' E 025°03'4414.1
2015-Apr-30 15:25N 37°57' E 024°15'12 1.9
2015-Apr-30 09:16N 38°01' E 024°01'1317.8
2015-Apr-30 08:32N 37°57' E 024°17'4715.7
2015-Apr-30 05:33N 37°33' E 025°07'1110.9
2015-Apr-30 04:32N 37°28' E 025°20'0 0.0
2015-Apr-30 03:29N 37°28' E 025°20'0 0.0
2015-Apr-30 02:25N 37°28' E 025°20'0 0.0
2015-Apr-30 01:32N 37°28' E 025°20'0 0.0
2015-Apr-30 00:32N 37°28' E 025°20'0 0.0
2015-Apr-29 23:21N 37°28' E 025°20'0 0.0
2015-Apr-29 22:32N 37°28' E 025°20'0 0.0
2015-Apr-29 21:31N 37°28' E 025°20'0 0.0
2015-Apr-29 20:33N 37°28' E 025°20'4 3.5
2015-Apr-29 19:33N 37°29' E 025°15'1010.6
2015-Apr-29 18:34N 37°34' E 025°04'57 6.2
2015-Apr-29 09:21N 38°02' E 024°01'1717.8
2015-Apr-29 08:24N 37°56' E 024°21'2613.9
2015-Apr-29 06:33N 37°44' E 024°50'1818.2
2015-Apr-29 05:33N 37°33' E 025°07'1110.8
2015-Apr-29 04:33N 37°28' E 025°20'0 0.0
2015-Apr-29 03:33N 37°28' E 025°20'0 0.0
2015-Apr-29 02:33N 37°28' E 025°20'0 0.0
2015-Apr-29 01:33N 37°28' E 025°20'0 0.0
2015-Apr-29 00:33N 37°28' E 025°20'0 0.0
2015-Apr-28 23:33N 37°28' E 025°20'0 0.0
2015-Apr-28 22:33N 37°28' E 025°20'0 0.0
2015-Apr-28 21:33N 37°28' E 025°20'0 0.0
2015-Apr-28 20:33N 37°28' E 025°20'0 0.2
2015-Apr-28 19:33N 37°28' E 025°19'1010.4
2015-Apr-28 18:33N 37°32' E 025°07'1817.6
2015-Apr-28 17:33N 37°44' E 024°51'2913.6
2015-Apr-28 15:23N 37°57' E 024°17'14 2.3
2015-Apr-28 09:21N 38°01' E 024°01'1417.3
2015-Apr-28 08:32N 37°57' E 024°18'2914.0
2015-Apr-28 06:30N 37°45' E 024°50'1818.6
2015-Apr-28 05:33N 37°33' E 025°07'1111.1
2015-Apr-28 04:33N 37°28' E 025°20'0 0.0
2015-Apr-28 03:33N 37°28' E 025°20'0 0.0
2015-Apr-28 02:33N 37°28' E 025°20'0 0.0
2015-Apr-28 01:33N 37°28' E 025°20'0 0.0
2015-Apr-28 00:33N 37°28' E 025°20'0 0.0
2015-Apr-27 23:33N 37°28' E 025°20'0 0.0
2015-Apr-27 22:33N 37°28' E 025°20'0 0.0
2015-Apr-27 21:33N 37°28' E 025°20'0 0.0
2015-Apr-27 20:33N 37°28' E 025°20'0 0.0
2015-Apr-27 19:34N 37°28' E 025°20'10 9.9
2015-Apr-27 18:33N 37°32' E 025°08'1717.5
2015-Apr-27 17:34N 37°44' E 024°52'3214.1
2015-Apr-27 15:18N 37°57' E 024°15'12 2.0
2015-Apr-27 09:17N 38°01' E 024°01'1418.0
2015-Apr-27 08:30N 37°57' E 024°18'2914.4
2015-Apr-27 06:30N 37°44' E 024°50'1818.5
2015-Apr-27 05:33N 37°33' E 025°07'1111.2
2015-Apr-27 04:33N 37°28' E 025°20'0 0.0
2015-Apr-27 03:33N 37°28' E 025°20'0 0.0
2015-Apr-27 02:33N 37°28' E 025°20'0 0.0
2015-Apr-27 01:33N 37°28' E 025°20'0 0.0
2015-Apr-27 00:33N 37°28' E 025°20'0 0.0
2015-Apr-26 23:33N 37°28' E 025°20'0 0.0
2015-Apr-26 22:33N 37°28' E 025°20'0 0.0
2015-Apr-26 21:33N 37°28' E 025°20'0 0.0
2015-Apr-26 20:33N 37°28' E 025°20'0 0.0
2015-Apr-26 19:33N 37°28' E 025°20'9 9.3
2015-Apr-26 18:33N 37°32' E 025°09'1616.4
2015-Apr-26 17:33N 37°43' E 024°54'3214.4
2015-Apr-26 15:19N 37°57' E 024°17'10 5.6
2015-Apr-26 13:34N 38°01' E 024°05'2018.4
2015-Apr-26 12:27N 37°54' E 024°30'2513.3
2015-Apr-26 10:33N 37°39' E 024°56'1413.7
2015-Apr-26 09:33N 37°31' E 025°10'9 8.6
2015-Apr-26 08:33N 37°28' E 025°20'0 0.0
2015-Apr-26 07:33N 37°28' E 025°20'0 0.0
2015-Apr-26 06:33N 37°28' E 025°20'0 0.0
2015-Apr-26 05:33N 37°28' E 025°20'0 0.0
2015-Apr-26 04:33N 37°28' E 025°20'0 0.0
2015-Apr-26 03:33N 37°28' E 025°20'0 0.0
2015-Apr-26 02:33N 37°28' E 025°20'0 0.0
2015-Apr-26 01:33N 37°28' E 025°20'0 0.0
2015-Apr-26 00:33N 37°28' E 025°20'0 0.0
2015-Apr-25 23:33N 37°28' E 025°20'0 0.0
2015-Apr-25 22:33N 37°28' E 025°20'0 0.0
2015-Apr-25 21:33N 37°28' E 025°20'0 0.0
2015-Apr-25 20:33N 37°28' E 025°20'0 0.0
2015-Apr-25 19:33N 37°28' E 025°20'9 9.5
2015-Apr-25 18:33N 37°32' E 025°09'1716.7
2015-Apr-25 17:33N 37°43' E 024°53'4515.0
2015-Apr-25 14:33N 38°01' E 024°01'4 4.0
2015-Apr-25 13:33N 38°00' E 024°06'1918.3
2015-Apr-25 12:30N 37°54' E 024°29'2512.9
2015-Apr-25 10:33N 37°40' E 024°55'1413.9
2015-Apr-25 09:33N 37°32' E 025°09'9 9.0
2015-Apr-25 08:33N 37°28' E 025°20'0 0.0
2015-Apr-25 07:33N 37°28' E 025°20'0 0.0
2015-Apr-25 06:33N 37°28' E 025°20'0 0.0
2015-Apr-25 05:34N 37°28' E 025°20'0 0.0
2015-Apr-25 04:33N 37°28' E 025°20'0 0.0
2015-Apr-25 03:33N 37°28' E 025°20'0 0.0
2015-Apr-25 02:33N 37°28' E 025°20'0 0.0
2015-Apr-25 01:33N 37°28' E 025°20'0 0.0
2015-Apr-25 00:34N 37°28' E 025°20'0 0.0
2015-Apr-24 23:33N 37°28' E 025°20'0 0.0
2015-Apr-24 22:33N 37°28' E 025°20'0 0.0
2015-Apr-24 21:34N 37°28' E 025°20'0 0.0
2015-Apr-24 20:33N 37°28' E 025°20'0 0.1
2015-Apr-24 19:34N 37°28' E 025°20'1111.1
2015-Apr-24 18:34N 37°32' E 025°07'1717.5
2015-Apr-24 17:34N 37°44' E 024°51'3013.7
2015-Apr-24 15:22N 37°57' E 024°16'13 2.2
2015-Apr-24 09:23N 38°01' E 024°01'1817.6
2015-Apr-24 08:22N 37°55' E 024°22'2513.7
2015-Apr-24 06:33N 37°44' E 024°50'1818.4
2015-Apr-24 05:33N 37°32' E 025°08'1110.6
2015-Apr-24 04:33N 37°28' E 025°20'0 0.0
2015-Apr-24 03:33N 37°28' E 025°20'0 0.0
2015-Apr-24 02:33N 37°28' E 025°20'0 0.0
2015-Apr-24 01:33N 37°28' E 025°20'0 0.0
2015-Apr-24 00:33N 37°28' E 025°20'0 0.0
2015-Apr-23 23:33N 37°28' E 025°20'0 0.0
2015-Apr-23 22:34N 37°28' E 025°20'0 0.0
2015-Apr-23 21:33N 37°28' E 025°20'0 0.0
2015-Apr-23 20:33N 37°28' E 025°20'0 0.0
2015-Apr-23 19:33N 37°28' E 025°20'10 9.9
2015-Apr-23 18:34N 37°32' E 025°09'1717.4
2015-Apr-23 17:34N 37°44' E 024°52'3414.2
2015-Apr-23 15:08N 37°58' E 024°13'  

Dump ship's entire track history